Time;durP1;ratioP1;P1;durP2;ratioP2;P2;SDS_P1;SDS_P2;PMS_P1;PMS_P2;Temp;Humidity;BMP_temperature;BMP_pressure;BME280_temperature;BME280_humidity;BME280_pressure;Samples;Min_cycle;Max_cycle;Signal;HPM_P1;HPM_P2
2021/10/10 00:00:23;;;;;;;;;;;;;;;;;;1014184;29;1272;-18
2021/10/10 00:00:53;;;;;;;;;;;;;;;;;;1014483;29;1003;-17
2021/10/10 00:01:24;;;;;;;;;;;;;;;;;;1015000;29;879;-17
2021/10/10 00:01:54;;;;;;;;;;;;;;;;;;1015417;29;995;-17
2021/10/10 00:02:24;;;;;;;;;;;;;;;;;;1015699;29;916;-17
2021/10/10 00:02:55;;;;;;;;;;;;;;;;;;1015122;29;1289;-17
2021/10/10 00:03:25;;;;;;;;;;;;;;;;;;1015264;29;911;-17
2021/10/10 00:03:56;;;;;;;;;;;;;;;;;;1015291;29;2015;-17
2021/10/10 00:04:26;;;;;;;;;;;;;;;;;;1014861;29;1416;-17
2021/10/10 00:04:56;;;;;;;;;;;;;;;;;;1015978;29;1068;-17
2021/10/10 00:05:27;;;;;;;;;;;;;;;;;;1015948;29;966;-17
2021/10/10 00:05:57;;;;;;;;;;;;;;;;;;1015501;29;1388;-17
2021/10/10 00:06:27;;;;;;;;;;;;;;;;;;1015702;29;1258;-17
2021/10/10 00:06:58;;;;;;;;;;;;;;;;;;1015574;29;1276;-17
2021/10/10 00:07:28;;;;;;;;;;;;;;;;;;1015769;29;1215;-17
2021/10/10 00:07:59;;;;;;;;;;;;;;;;;;1015060;29;1190;-17
2021/10/10 00:08:29;;;;;;;;;;;;;;;;;;1014841;29;1353;-17
2021/10/10 00:09:00;;;;;;;;;;;;;;;;;;1018648;29;1270;-17
2021/10/10 00:09:30;;;;;;;;;;;;;;;;;;1019163;29;899;-17
2021/10/10 00:10:01;;;;;;;;;;;;;;;;;;1015317;29;981;-17
2021/10/10 00:10:31;;;;;;;;;;;;;;;;;;1015182;29;1399;-17
2021/10/10 00:11:02;;;;;;;;;;;;;;;;;;1011225;29;1025;-17
2021/10/10 00:11:32;;;;;;;;;;;;;;;;;;1011580;29;1360;-17
2021/10/10 00:12:03;;;;;;;;;;;;;;;;;;1014976;29;1050;-17
2021/10/10 00:12:33;;;;;;;;;;;;;;;;;;1015187;29;942;-17
2021/10/10 00:13:03;;;;;;;;;;;;;;;;;;1015042;29;1088;-17
2021/10/10 00:13:34;;;;;;;;;;;;;;;;;;1014719;29;1333;-17
2021/10/10 00:14:04;;;;;;;;;;;;;;;;;;1019197;29;1567;-17
2021/10/10 00:14:35;;;;;;;;;;;;;;;;;;1019534;29;1041;-17
2021/10/10 00:15:09;;;;;;;;;;;;;;;;;;1019207;29;1217;-17
2021/10/10 00:15:40;;;;;;;;;;;;;;;;;;1015900;29;1005;-17
2021/10/10 00:16:10;;;;;;;;;;;;;;;;;;1015614;29;1207;-17
2021/10/10 00:16:40;;;;;;;;;;;;;;;;;;1015718;29;1006;-17
2021/10/10 00:17:11;;;;;;;;;;;;;;;;;;1015927;29;1159;-18
2021/10/10 00:17:41;;;;;;;;;;;;;;;;;;1015829;29;1017;-17
2021/10/10 00:18:12;;;;;;;;;;;;;;;;;;1019441;29;940;-17
2021/10/10 00:18:42;;;;;;;;;;;;;;;;;;1019506;29;962;-17
2021/10/10 00:19:12;;;;;;;;;;;;;;;;;;1019097;29;1450;-17
2021/10/10 00:19:43;;;;;;;;;;;;;;;;;;1019364;29;1163;-17
2021/10/10 00:20:14;;;;;;;;;;;;;;;;;;1018351;29;1308;-17
2021/10/10 00:20:44;;;;;;;;;;;;;;;;;;1018824;29;1095;-17
2021/10/10 00:21:15;;;;;;;;;;;;;;;;;;1019749;28;1208;-17
2021/10/10 00:21:46;;;;;;;;;;;;;;;;;;1022581;28;1069;-17
2021/10/10 00:22:16;;;;;;;;;;;;;;;;;;1022929;28;1083;-17
2021/10/10 00:22:47;;;;;;;;;;;;;;;;;;1023136;28;991;-17
2021/10/10 00:23:17;;;;;;;;;;;;;;;;;;1022985;28;1129;-17
2021/10/10 00:23:47;;;;;;;;;;;;;;;;;;1023116;28;1915;-17
2021/10/10 00:24:18;;;;;;;;;;;;;;;;;;1011833;29;949;-17
2021/10/10 00:24:48;;;;;;;;;;;;;;;;;;1012162;29;940;-17
2021/10/10 00:25:18;;;;;;;;;;;;;;;;;;1011883;29;879;-17
2021/10/10 00:25:49;;;;;;;;;;;;;;;;;;1011594;29;1422;-17
2021/10/10 00:26:19;;;;;;;;;;;;;;;;;;1015800;29;942;-17
2021/10/10 00:26:50;;;;;;;;;;;;;;;;;;1014819;29;1514;-18
2021/10/10 00:27:21;;;;;;;;;;;;;;;;;;1019005;29;1337;-17
2021/10/10 00:27:52;;;;;;;;;;;;;;;;;;1017793;29;1137;-17
2021/10/10 00:28:22;;;;;;;;;;;;;;;;;;1011058;29;1440;-17
2021/10/10 00:28:53;;;;;;;;;;;;;;;;;;1015582;28;1510;-17
2021/10/10 00:29:23;;;;;;;;;;;;;;;;;;1010474;29;1156;-17
2021/10/10 00:29:54;;;;;;;;;;;;;;;;;;1010696;29;1440;-17
2021/10/10 00:30:25;;;;;;;;;;;;;;;;;;1011112;29;1033;-17
2021/10/10 00:30:57;;;;;;;;;;;;;;;;;;1011051;29;1180;-17
2021/10/10 00:31:27;;;;;;;;;;;;;;;;;;1015907;29;1021;-17
2021/10/10 00:31:59;;;;;;;;;;;;;;;;;;1015759;29;997;-17
2021/10/10 00:32:29;;;;;;;;;;;;;;;;;;1016000;29;992;-17
2021/10/10 00:33:00;;;;;;;;;;;;;;;;;;1015826;29;953;-18
2021/10/10 00:33:30;;;;;;;;;;;;;;;;;;1015765;29;973;-17
2021/10/10 00:34:00;;;;;;;;;;;;;;;;;;1015695;29;924;-17
2021/10/10 00:34:30;;;;;;;;;;;;;;;;;;1015825;29;1026;-17
2021/10/10 00:35:01;;;;;;;;;;;;;;;;;;1015269;29;1210;-18
2021/10/10 00:35:34;;;;;;;;;;;;;;;;;;1016004;29;1033;-18
2021/10/10 00:36:04;;;;;;;;;;;;;;;;;;1014992;29;1240;-17
2021/10/10 00:36:34;;;;;;;;;;;;;;;;;;1015129;29;1085;-17
2021/10/10 00:37:05;;;;;;;;;;;;;;;;;;1014998;29;1067;-17
2021/10/10 00:37:35;;;;;;;;;;;;;;;;;;1014525;29;1303;-17
2021/10/10 00:38:05;;;;;;;;;;;;;;;;;;1015533;29;1084;-17
2021/10/10 00:38:37;;;;;;;;;;;;;;;;;;1015742;29;3604;-17
2021/10/10 00:39:07;;;;;;;;;;;;;;;;;;1015787;29;968;-17
2021/10/10 00:39:38;;;;;;;;;;;;;;;;;;1015829;29;1061;-17
2021/10/10 00:40:08;;;;;;;;;;;;;;;;;;1015453;29;1449;-17
2021/10/10 00:40:39;;;;;;;;;;;;;;;;;;1014989;29;1565;-17
2021/10/10 00:41:10;;;;;;;;;;;;;;;;;;1015167;29;1144;-17
2021/10/10 00:41:40;;;;;;;;;;;;;;;;;;1014964;29;1279;-17
2021/10/10 00:42:11;;;;;;;;;;;;;;;;;;1015105;29;1055;-17
2021/10/10 00:42:41;;;;;;;;;;;;;;;;;;1010990;29;1054;-17
2021/10/10 00:43:11;;;;;;;;;;;;;;;;;;1015754;29;1117;-18
2021/10/10 00:43:42;;;;;;;;;;;;;;;;;;1015186;29;1173;-17
2021/10/10 00:44:13;;;;;;;;;;;;;;;;;;1014930;29;933;-17
2021/10/10 00:44:46;;;;;;;;;;;;;;;;;;1015090;29;977;-17
2021/10/10 00:45:17;;;;;;;;;;;;;;;;;;1014971;29;1386;-27
2021/10/10 00:45:48;;;;;;;;;;;;;;;;;;1007459;29;1046;-17
2021/10/10 00:46:18;;;;;;;;;;;;;;;;;;1007086;29;1214;-17
2021/10/10 00:46:49;;;;;;;;;;;;;;;;;;1007282;29;943;-17
2021/10/10 00:47:20;;;;;;;;;;;;;;;;;;1007412;29;1077;-17
2021/10/10 00:47:50;;;;;;;;;;;;;;;;;;1010759;29;1590;-17
2021/10/10 00:48:21;;;;;;;;;;;;;;;;;;1010750;29;1035;-17
2021/10/10 00:48:51;;;;;;;;;;;;;;;;;;1011191;29;1036;-17
2021/10/10 00:49:21;;;;;;;;;;;;;;;;;;1010951;29;1158;-17
2021/10/10 00:49:52;;;;;;;;;;;;;;;;;;1011053;29;1042;-17
2021/10/10 00:50:23;;;;;;;;;;;;;;;;;;1007277;29;1180;-17
2021/10/10 00:50:53;;;;;;;;;;;;;;;;;;1006780;29;1078;-17
2021/10/10 00:51:23;;;;;;;;;;;;;;;;;;1007143;29;1293;-18
2021/10/10 00:51:55;;;;;;;;;;;;;;;;;;1011072;29;1368;-17
2021/10/10 00:52:27;;;;;;;;;;;;;;;;;;1018611;29;1050;-17
2021/10/10 00:52:58;;;;;;;;;;;;;;;;;;1017738;29;1151;-17
2021/10/10 00:53:30;;;;;;;;;;;;;;;;;;1014974;29;1158;-17
2021/10/10 00:54:01;;;;;;;;;;;;;;;;;;1015096;29;856;-17
2021/10/10 00:54:32;;;;;;;;;;;;;;;;;;1015566;29;2708;-17
2021/10/10 00:55:03;;;;;;;;;;;;;;;;;;1015367;29;1376;-17
2021/10/10 00:55:34;;;;;;;;;;;;;;;;;;1015952;29;987;-17
2021/10/10 00:56:05;;;;;;;;;;;;;;;;;;1014491;29;1265;-17
2021/10/10 00:56:36;;;;;;;;;;;;;;;;;;1015027;29;1115;-17
2021/10/10 00:57:08;;;;;;;;;;;;;;;;;;1011350;29;993;-18
2021/10/10 00:57:40;;;;;;;;;;;;;;;;;;1011468;29;995;-18
2021/10/10 00:58:12;;;;;;;;;;;;;;;;;;1015087;29;993;-18
2021/10/10 00:58:42;;;;;;;;;;;;;;;;;;1015288;29;867;-18
2021/10/10 00:59:14;;;;;;;;;;;;;;;;;;1015913;29;1003;-18
2021/10/10 00:59:45;;;;;;;;;;;;;;;;;;1015751;29;968;-18
2021/10/10 01:00:16;;;;;;;;;;;;;;;;;;1015284;29;1457;-18
2021/10/10 01:00:46;;;;;;;;;;;;;;;;;;1015934;29;1061;-18
2021/10/10 01:01:17;;;;;;;;;;;;;;;;;;1015417;29;1297;-18
2021/10/10 01:01:48;;;;;;;;;;;;;;;;;;1015508;29;1170;-18
2021/10/10 01:02:19;;;;;;;;;;;;;;;;;;1014661;29;1379;-18
2021/10/10 01:02:55;;;;;;;;;;;;;;;;;;1014864;29;1291;-18
2021/10/10 01:03:26;;;;;;;;;;;;;;;;;;1011071;29;868;-18
2021/10/10 01:03:56;;;;;;;;;;;;;;;;;;1011383;29;1980;-18
2021/10/10 01:04:27;;;;;;;;;;;;;;;;;;1015069;29;1154;-18
2021/10/10 01:04:57;;;;;;;;;;;;;;;;;;1014678;29;1086;-18
2021/10/10 01:05:28;;;;;;;;;;;;;;;;;;1015173;29;1389;-18
2021/10/10 01:05:59;;;;;;;;;;;;;;;;;;1015459;29;1189;-18
2021/10/10 01:06:30;;;;;;;;;;;;;;;;;;1010821;29;1207;-18
2021/10/10 01:07:00;;;;;;;;;;;;;;;;;;1010725;29;1085;-18
2021/10/10 01:07:31;;;;;;;;;;;;;;;;;;1003276;29;1046;-18
2021/10/10 01:08:01;;;;;;;;;;;;;;;;;;1002683;29;1420;-18
2021/10/10 01:08:32;;;;;;;;;;;;;;;;;;1010709;29;1267;-18
2021/10/10 01:09:02;;;;;;;;;;;;;;;;;;1010691;29;1556;-19
2021/10/10 01:09:35;;;;;;;;;;;;;;;;;;1014187;29;1434;-18
2021/10/10 01:10:07;;;;;;;;;;;;;;;;;;1006743;29;1050;-18
2021/10/10 01:10:38;;;;;;;;;;;;;;;;;;1006928;29;1119;-18
2021/10/10 01:11:09;;;;;;;;;;;;;;;;;;1007315;29;1107;-18
2021/10/10 01:11:40;;;;;;;;;;;;;;;;;;1011101;29;1010;-18
2021/10/10 01:12:10;;;;;;;;;;;;;;;;;;1018841;29;1194;-18
2021/10/10 01:12:41;;;;;;;;;;;;;;;;;;1018938;28;1003;-18
2021/10/10 01:13:12;;;;;;;;;;;;;;;;;;1018513;29;1283;-18
2021/10/10 01:13:44;;;;;;;;;;;;;;;;;;1018395;29;1128;-18
2021/10/10 01:14:14;;;;;;;;;;;;;;;;;;1015342;29;1136;-18
2021/10/10 01:14:44;;;;;;;;;;;;;;;;;;1015545;29;1767;-18
2021/10/10 01:15:15;;;;;;;;;;;;;;;;;;1015179;29;1045;-18
2021/10/10 01:15:46;;;;;;;;;;;;;;;;;;1015889;29;986;-18
2021/10/10 01:16:17;;;;;;;;;;;;;;;;;;1015335;29;973;-18
2021/10/10 01:16:47;;;;;;;;;;;;;;;;;;1015608;29;1025;-18
2021/10/10 01:17:18;;;;;;;;;;;;;;;;;;1018602;29;1077;-18
2021/10/10 01:17:49;;;;;;;;;;;;;;;;;;1018631;29;1048;-18
2021/10/10 01:18:22;;;;;;;;;;;;;;;;;;1018571;29;1552;-18
2021/10/10 01:18:56;;;;;;;;;;;;;;;;;;1018488;29;1025;-18
2021/10/10 01:19:30;;;;;;;;;;;;;;;;;;1015669;29;998;-18
2021/10/10 01:20:02;;;;;;;;;;;;;;;;;;1018687;29;1021;-18
2021/10/10 01:20:45;;;;;;;;;;;;;;;;;;1014698;29;1028;-18
2021/10/10 01:21:17;;;;;;;;;;;;;;;;;;1014657;29;1264;-18
2021/10/10 01:21:47;;;;;;;;;;;;;;;;;;1014810;29;1031;-18
2021/10/10 01:22:18;;;;;;;;;;;;;;;;;;1014603;29;1269;-18
2021/10/10 01:22:48;;;;;;;;;;;;;;;;;;1014984;29;906;-18
2021/10/10 01:23:19;;;;;;;;;;;;;;;;;;1014637;29;1049;-18
2021/10/10 01:23:49;;;;;;;;;;;;;;;;;;1014850;29;1919;-18
2021/10/10 01:24:20;;;;;;;;;;;;;;;;;;1014648;29;1580;-18
2021/10/10 01:24:50;;;;;;;;;;;;;;;;;;1014907;29;932;-19
2021/10/10 01:25:21;;;;;;;;;;;;;;;;;;1014763;29;974;-18
2021/10/10 01:25:52;;;;;;;;;;;;;;;;;;1014697;29;964;-18
2021/10/10 01:26:22;;;;;;;;;;;;;;;;;;1018680;29;1006;-18
2021/10/10 01:26:52;;;;;;;;;;;;;;;;;;1018327;28;1291;-18
2021/10/10 01:27:23;;;;;;;;;;;;;;;;;;1015616;29;1096;-18
2021/10/10 01:27:53;;;;;;;;;;;;;;;;;;1015027;29;1227;-18
2021/10/10 01:28:24;;;;;;;;;;;;;;;;;;1015279;29;1045;-18
2021/10/10 01:28:54;;;;;;;;;;;;;;;;;;1018463;29;1132;-18
2021/10/10 01:29:25;;;;;;;;;;;;;;;;;;1014497;29;1229;-18
2021/10/10 01:29:55;;;;;;;;;;;;;;;;;;1014759;29;958;-18
2021/10/10 01:30:26;;;;;;;;;;;;;;;;;;1010870;29;1082;-18
2021/10/10 01:30:56;;;;;;;;;;;;;;;;;;1006865;29;1127;-18
2021/10/10 01:31:27;;;;;;;;;;;;;;;;;;1018593;29;1033;-18
2021/10/10 01:31:57;;;;;;;;;;;;;;;;;;1018692;28;954;-18
2021/10/10 01:32:27;;;;;;;;;;;;;;;;;;1018806;29;1020;-18
2021/10/10 01:32:58;;;;;;;;;;;;;;;;;;1018887;28;783;-18
2021/10/10 01:33:29;;;;;;;;;;;;;;;;;;1015563;29;1058;-18
2021/10/10 01:33:59;;;;;;;;;;;;;;;;;;1015620;29;1642;-18
2021/10/10 01:34:30;;;;;;;;;;;;;;;;;;1015438;29;1519;-19
2021/10/10 01:35:00;;;;;;;;;;;;;;;;;;1015330;29;1150;-18
2021/10/10 01:35:31;;;;;;;;;;;;;;;;;;1018682;29;1339;-18
2021/10/10 01:36:01;;;;;;;;;;;;;;;;;;1018097;29;1361;-18
2021/10/10 01:36:34;;;;;;;;;;;;;;;;;;1018821;29;1054;-18
2021/10/10 01:37:04;;;;;;;;;;;;;;;;;;1018657;29;934;-18
2021/10/10 01:37:34;;;;;;;;;;;;;;;;;;1015285;28;946;-18
2021/10/10 01:38:06;;;;;;;;;;;;;;;;;;1015555;29;978;-18
2021/10/10 01:38:37;;;;;;;;;;;;;;;;;;1015440;29;3607;-19
2021/10/10 01:39:08;;;;;;;;;;;;;;;;;;1014664;29;1116;-18
2021/10/10 01:39:38;;;;;;;;;;;;;;;;;;1010998;29;1059;-18
2021/10/10 01:40:09;;;;;;;;;;;;;;;;;;1010613;29;1044;-18
2021/10/10 01:40:43;;;;;;;;;;;;;;;;;;1010811;29;1094;-18
2021/10/10 01:41:14;;;;;;;;;;;;;;;;;;1006953;29;1527;-18
2021/10/10 01:41:44;;;;;;;;;;;;;;;;;;1014803;29;1099;-18
2021/10/10 01:42:14;;;;;;;;;;;;;;;;;;1014839;29;1110;-18
2021/10/10 01:42:45;;;;;;;;;;;;;;;;;;1014413;29;1280;-18
2021/10/10 01:43:15;;;;;;;;;;;;;;;;;;1014698;29;1151;-18
2021/10/10 01:43:46;;;;;;;;;;;;;;;;;;1007188;29;1984;-18
2021/10/10 01:44:16;;;;;;;;;;;;;;;;;;1006866;29;1073;-18
2021/10/10 01:44:47;;;;;;;;;;;;;;;;;;1007394;29;931;-18
2021/10/10 01:45:19;;;;;;;;;;;;;;;;;;1006808;29;1105;-18
2021/10/10 01:45:49;;;;;;;;;;;;;;;;;;1014863;29;1565;-18
2021/10/10 01:46:20;;;;;;;;;;;;;;;;;;1014765;29;1324;-19
2021/10/10 01:46:50;;;;;;;;;;;;;;;;;;1014803;29;1232;-18
2021/10/10 01:47:20;;;;;;;;;;;;;;;;;;1018839;29;950;-18
2021/10/10 01:47:51;;;;;;;;;;;;;;;;;;1015377;29;816;-18
2021/10/10 01:48:22;;;;;;;;;;;;;;;;;;1015717;29;1061;-18
2021/10/10 01:48:53;;;;;;;;;;;;;;;;;;1014731;29;1056;-18
2021/10/10 01:49:23;;;;;;;;;;;;;;;;;;1014233;29;1631;-19
2021/10/10 01:49:54;;;;;;;;;;;;;;;;;;1010827;29;1050;-18
2021/10/10 01:50:25;;;;;;;;;;;;;;;;;;1010817;29;1414;-18
2021/10/10 01:50:56;;;;;;;;;;;;;;;;;;1014277;29;2465;-18
2021/10/10 01:51:26;;;;;;;;;;;;;;;;;;1015161;29;831;-18
2021/10/10 01:51:57;;;;;;;;;;;;;;;;;;1015301;29;1215;-18
2021/10/10 01:52:27;;;;;;;;;;;;;;;;;;1018747;29;1115;-18
2021/10/10 01:52:58;;;;;;;;;;;;;;;;;;1018631;29;1183;-18
2021/10/10 01:53:28;;;;;;;;;;;;;;;;;;1018773;29;981;-18
2021/10/10 01:53:59;;;;;;;;;;;;;;;;;;1018554;29;916;-18
2021/10/10 01:54:29;;;;;;;;;;;;;;;;;;1014823;29;1093;-18
2021/10/10 01:55:05;;;;;;;;;;;;;;;;;;1014870;29;1111;-18
2021/10/10 01:55:35;;;;;;;;;;;;;;;;;;1006777;29;1163;-18
2021/10/10 01:56:06;;;;;;;;;;;;;;;;;;1007416;29;982;-18
2021/10/10 01:56:36;;;;;;;;;;;;;;;;;;1006527;29;1105;-18
2021/10/10 01:57:06;;;;;;;;;;;;;;;;;;1006707;29;1516;-18
2021/10/10 01:57:37;;;;;;;;;;;;;;;;;;1014801;29;1065;-18
2021/10/10 01:58:07;;;;;;;;;;;;;;;;;;1015111;29;887;-18
2021/10/10 01:58:38;;;;;;;;;;;;;;;;;;1015385;29;1195;-18
2021/10/10 01:59:08;;;;;;;;;;;;;;;;;;1014753;29;981;-18
2021/10/10 01:59:39;;;;;;;;;;;;;;;;;;1014429;29;1297;-18
2021/10/10 02:00:10;;;;;;;;;;;;;;;;;;1014678;29;931;-18
2021/10/10 02:00:43;;;;;;;;;;;;;;;;;;1015137;29;855;-18
2021/10/10 02:01:13;;;;;;;;;;;;;;;;;;1015331;29;973;-18
2021/10/10 02:01:44;;;;;;;;;;;;;;;;;;1015562;29;1054;-18
2021/10/10 02:02:14;;;;;;;;;;;;;;;;;;1015139;29;1351;-18
2021/10/10 02:02:44;;;;;;;;;;;;;;;;;;1015439;29;1043;-18
2021/10/10 02:03:15;;;;;;;;;;;;;;;;;;1015437;29;1067;-19
2021/10/10 02:03:45;;;;;;;;;;;;;;;;;;1014822;29;945;-18
2021/10/10 02:04:15;;;;;;;;;;;;;;;;;;1014355;29;2159;-19
2021/10/10 02:04:46;;;;;;;;;;;;;;;;;;1014912;29;843;-18
2021/10/10 02:05:17;;;;;;;;;;;;;;;;;;1014327;29;1521;-18
2021/10/10 02:05:47;;;;;;;;;;;;;;;;;;1015496;29;1338;-18
2021/10/10 02:06:17;;;;;;;;;;;;;;;;;;1014901;29;1749;-18
2021/10/10 02:06:51;;;;;;;;;;;;;;;;;;1015377;29;1009;-18
2021/10/10 02:07:22;;;;;;;;;;;;;;;;;;1015491;29;1099;-18
2021/10/10 02:07:53;;;;;;;;;;;;;;;;;;1018324;29;1207;-18
2021/10/10 02:08:23;;;;;;;;;;;;;;;;;;1018619;29;1036;-18
2021/10/10 02:08:53;;;;;;;;;;;;;;;;;;1018315;28;1588;-18
2021/10/10 02:09:24;;;;;;;;;;;;;;;;;;1018042;29;1373;-18
2021/10/10 02:09:54;;;;;;;;;;;;;;;;;;1010775;29;1305;-18
2021/10/10 02:10:25;;;;;;;;;;;;;;;;;;1010322;29;1256;-18
2021/10/10 02:10:55;;;;;;;;;;;;;;;;;;1014454;29;1194;-18
2021/10/10 02:11:26;;;;;;;;;;;;;;;;;;1010693;29;1402;-18
2021/10/10 02:11:56;;;;;;;;;;;;;;;;;;1010450;29;1561;-18
2021/10/10 02:12:26;;;;;;;;;;;;;;;;;;1010451;29;1144;-19
2021/10/10 02:12:57;;;;;;;;;;;;;;;;;;1014924;29;916;-18
2021/10/10 02:13:27;;;;;;;;;;;;;;;;;;1015312;29;1022;-18
2021/10/10 02:13:57;;;;;;;;;;;;;;;;;;1015309;29;1051;-18
2021/10/10 02:14:28;;;;;;;;;;;;;;;;;;1015345;29;946;-18
2021/10/10 02:14:58;;;;;;;;;;;;;;;;;;1015071;29;990;-18
2021/10/10 02:15:28;;;;;;;;;;;;;;;;;;1015434;29;1062;-18
2021/10/10 02:15:59;;;;;;;;;;;;;;;;;;1018366;29;880;-18
2021/10/10 02:16:29;;;;;;;;;;;;;;;;;;1018548;29;957;-18
2021/10/10 02:17:00;;;;;;;;;;;;;;;;;;1018205;29;1534;-18
2021/10/10 02:17:30;;;;;;;;;;;;;;;;;;1018485;28;977;-18
2021/10/10 02:18:01;;;;;;;;;;;;;;;;;;1018438;29;1040;-18
2021/10/10 02:18:31;;;;;;;;;;;;;;;;;;1021566;28;1532;-18
2021/10/10 02:19:02;;;;;;;;;;;;;;;;;;1022608;28;1152;-18
2021/10/10 02:19:32;;;;;;;;;;;;;;;;;;1022122;28;1353;-18
2021/10/10 02:20:04;;;;;;;;;;;;;;;;;;1014832;29;1259;-19
2021/10/10 02:20:35;;;;;;;;;;;;;;;;;;1015199;29;1060;-18
2021/10/10 02:21:05;;;;;;;;;;;;;;;;;;1015261;29;1108;-18
2021/10/10 02:21:37;;;;;;;;;;;;;;;;;;1015444;29;1232;-18
2021/10/10 02:22:08;;;;;;;;;;;;;;;;;;1015098;29;1463;-18
2021/10/10 02:22:38;;;;;;;;;;;;;;;;;;1014282;29;1354;-18
2021/10/10 02:23:09;;;;;;;;;;;;;;;;;;1014821;29;1087;-18
2021/10/10 02:23:40;;;;;;;;;;;;;;;;;;1010453;29;1133;-18
2021/10/10 02:24:10;;;;;;;;;;;;;;;;;;1010686;29;1960;-18
2021/10/10 02:24:40;;;;;;;;;;;;;;;;;;1015187;29;1438;-18
2021/10/10 02:25:10;;;;;;;;;;;;;;;;;;1014889;29;965;-18
2021/10/10 02:25:41;;;;;;;;;;;;;;;;;;1015471;29;1025;-18
2021/10/10 02:26:11;;;;;;;;;;;;;;;;;;1015017;29;1354;-18
2021/10/10 02:26:42;;;;;;;;;;;;;;;;;;1014492;29;1080;-18
2021/10/10 02:27:13;;;;;;;;;;;;;;;;;;1014404;29;1117;-18
2021/10/10 02:27:45;;;;;;;;;;;;;;;;;;1006701;29;1105;-18
2021/10/10 02:28:15;;;;;;;;;;;;;;;;;;1006847;29;1181;-18
2021/10/10 02:28:50;;;;;;;;;;;;;;;;;;1006428;29;1013;-18
2021/10/10 02:29:21;;;;;;;;;;;;;;;;;;1008688;29;967;-18
2021/10/10 02:29:52;;;;;;;;;;;;;;;;;;1014732;29;1017;-18
2021/10/10 02:30:22;;;;;;;;;;;;;;;;;;1014315;29;1801;-18
2021/10/10 02:30:52;;;;;;;;;;;;;;;;;;1014449;29;1150;-18
2021/10/10 02:31:23;;;;;;;;;;;;;;;;;;1014790;29;997;-18
2021/10/10 02:31:55;;;;;;;;;;;;;;;;;;1015118;29;880;-18
2021/10/10 02:32:26;;;;;;;;;;;;;;;;;;1014782;29;871;-18
2021/10/10 02:32:56;;;;;;;;;;;;;;;;;;1014541;29;954;-18
2021/10/10 02:33:27;;;;;;;;;;;;;;;;;;1014735;29;1046;-18
2021/10/10 02:33:57;;;;;;;;;;;;;;;;;;1014583;29;870;-18
2021/10/10 02:34:27;;;;;;;;;;;;;;;;;;1015404;29;1477;-18
2021/10/10 02:34:58;;;;;;;;;;;;;;;;;;1014498;29;1030;-18
2021/10/10 02:35:29;;;;;;;;;;;;;;;;;;1018322;29;1093;-18
2021/10/10 02:35:59;;;;;;;;;;;;;;;;;;1018373;29;1051;-18
2021/10/10 02:36:30;;;;;;;;;;;;;;;;;;1018447;29;1298;-18
2021/10/10 02:37:02;;;;;;;;;;;;;;;;;;1010807;29;1124;-18
2021/10/10 02:37:32;;;;;;;;;;;;;;;;;;1015342;29;855;-18
2021/10/10 02:38:03;;;;;;;;;;;;;;;;;;1010190;29;1422;-18
2021/10/10 02:38:34;;;;;;;;;;;;;;;;;;998927;29;3550;-18
2021/10/10 02:39:05;;;;;;;;;;;;;;;;;;999158;29;931;-18
2021/10/10 02:39:35;;;;;;;;;;;;;;;;;;1002302;29;1328;-18
2021/10/10 02:40:11;;;;;;;;;;;;;;;;;;1000484;29;989;-18
2021/10/10 02:40:41;;;;;;;;;;;;;;;;;;1002731;29;1358;-18
2021/10/10 02:41:13;;;;;;;;;;;;;;;;;;1009740;29;1181;-18
2021/10/10 02:41:43;;;;;;;;;;;;;;;;;;1006946;29;1094;-18
2021/10/10 02:42:14;;;;;;;;;;;;;;;;;;1006498;29;1297;-18
2021/10/10 02:42:44;;;;;;;;;;;;;;;;;;999436;29;873;-18
2021/10/10 02:43:14;;;;;;;;;;;;;;;;;;1010717;29;1340;-18
2021/10/10 02:43:45;;;;;;;;;;;;;;;;;;1011419;29;1150;-18
2021/10/10 02:44:15;;;;;;;;;;;;;;;;;;1011396;29;1968;-18
2021/10/10 02:44:45;;;;;;;;;;;;;;;;;;1011249;29;1409;-18
2021/10/10 02:45:16;;;;;;;;;;;;;;;;;;1011196;29;1034;-19
2021/10/10 02:45:46;;;;;;;;;;;;;;;;;;1014812;29;1068;-18
2021/10/10 02:46:16;;;;;;;;;;;;;;;;;;1014921;29;1519;-18
2021/10/10 02:46:48;;;;;;;;;;;;;;;;;;1015421;29;1132;-18
2021/10/10 02:47:18;;;;;;;;;;;;;;;;;;1010243;29;2846;-18
2021/10/10 02:47:48;;;;;;;;;;;;;;;;;;1010736;29;1046;-18
2021/10/10 02:48:20;;;;;;;;;;;;;;;;;;1011044;29;882;-18
2021/10/10 02:48:50;;;;;;;;;;;;;;;;;;1010364;29;1557;-18
2021/10/10 02:49:21;;;;;;;;;;;;;;;;;;1015520;29;1171;-18
2021/10/10 02:49:51;;;;;;;;;;;;;;;;;;1015230;29;1468;-18
2021/10/10 02:50:21;;;;;;;;;;;;;;;;;;1015162;29;1013;-19
2021/10/10 02:50:52;;;;;;;;;;;;;;;;;;1015374;29;1259;-18
2021/10/10 02:51:22;;;;;;;;;;;;;;;;;;1015536;29;1072;-18
2021/10/10 02:51:53;;;;;;;;;;;;;;;;;;1014272;29;1076;-18
2021/10/10 02:52:23;;;;;;;;;;;;;;;;;;1014865;29;990;-18
2021/10/10 02:52:55;;;;;;;;;;;;;;;;;;1010226;29;1586;-18
2021/10/10 02:53:25;;;;;;;;;;;;;;;;;;1010944;29;1171;-18
2021/10/10 02:53:56;;;;;;;;;;;;;;;;;;1014851;29;1373;-18
2021/10/10 02:54:27;;;;;;;;;;;;;;;;;;1015234;29;946;-18
2021/10/10 02:54:57;;;;;;;;;;;;;;;;;;1014491;29;1446;-18
2021/10/10 02:55:27;;;;;;;;;;;;;;;;;;1014312;29;1111;-18
2021/10/10 02:55:58;;;;;;;;;;;;;;;;;;1014609;29;1325;-18
2021/10/10 02:56:28;;;;;;;;;;;;;;;;;;1014627;29;1384;-18
2021/10/10 02:56:58;;;;;;;;;;;;;;;;;;1015151;29;1103;-18
2021/10/10 02:57:28;;;;;;;;;;;;;;;;;;1015444;29;1167;-18
2021/10/10 02:57:59;;;;;;;;;;;;;;;;;;1014829;29;1306;-18
2021/10/10 02:58:30;;;;;;;;;;;;;;;;;;1015276;29;949;-18
2021/10/10 02:59:00;;;;;;;;;;;;;;;;;;1014543;29;1013;-18
2021/10/10 02:59:31;;;;;;;;;;;;;;;;;;1014393;29;1061;-18
2021/10/10 03:00:03;;;;;;;;;;;;;;;;;;1014600;29;958;-18
2021/10/10 03:00:33;;;;;;;;;;;;;;;;;;1014382;29;1525;-18
2021/10/10 03:01:04;;;;;;;;;;;;;;;;;;1014289;29;1070;-18
2021/10/10 03:01:34;;;;;;;;;;;;;;;;;;1015238;29;1110;-18
2021/10/10 03:02:05;;;;;;;;;;;;;;;;;;1015167;29;1134;-18
2021/10/10 03:02:36;;;;;;;;;;;;;;;;;;1018634;29;1140;-18
2021/10/10 03:03:06;;;;;;;;;;;;;;;;;;1022263;28;1096;-18
2021/10/10 03:03:37;;;;;;;;;;;;;;;;;;1022505;28;1191;-18
2021/10/10 03:04:07;;;;;;;;;;;;;;;;;;1022490;28;2065;-18
2021/10/10 03:04:37;;;;;;;;;;;;;;;;;;1014509;29;1613;-18
2021/10/10 03:05:08;;;;;;;;;;;;;;;;;;1015277;29;986;-18
2021/10/10 03:05:38;;;;;;;;;;;;;;;;;;1015587;29;957;-18
2021/10/10 03:06:08;;;;;;;;;;;;;;;;;;1014860;29;1197;-18
2021/10/10 03:06:39;;;;;;;;;;;;;;;;;;1014642;29;1143;-18
2021/10/10 03:07:10;;;;;;;;;;;;;;;;;;1010137;29;1605;-18
2021/10/10 03:07:40;;;;;;;;;;;;;;;;;;1010561;29;1014;-18
2021/10/10 03:08:10;;;;;;;;;;;;;;;;;;1010642;29;923;-18
2021/10/10 03:08:41;;;;;;;;;;;;;;;;;;1010376;29;1543;-20
2021/10/10 03:09:13;;;;;;;;;;;;;;;;;;1014962;29;991;-18
2021/10/10 03:09:43;;;;;;;;;;;;;;;;;;1014969;29;1557;-18
2021/10/10 03:10:13;;;;;;;;;;;;;;;;;;1014848;29;974;-18
2021/10/10 03:10:44;;;;;;;;;;;;;;;;;;1015523;29;994;-18
2021/10/10 03:11:14;;;;;;;;;;;;;;;;;;1014799;29;1474;-18
2021/10/10 03:11:45;;;;;;;;;;;;;;;;;;1015447;29;1070;-18
2021/10/10 03:12:15;;;;;;;;;;;;;;;;;;1015377;29;1009;-18
2021/10/10 03:12:45;;;;;;;;;;;;;;;;;;1015233;29;1288;-18
2021/10/10 03:13:15;;;;;;;;;;;;;;;;;;1015247;29;946;-18
2021/10/10 03:13:46;;;;;;;;;;;;;;;;;;1014873;29;1439;-18
2021/10/10 03:14:17;;;;;;;;;;;;;;;;;;1015100;29;1020;-18
2021/10/10 03:14:47;;;;;;;;;;;;;;;;;;1018371;29;1096;-18
2021/10/10 03:15:17;;;;;;;;;;;;;;;;;;1018351;29;1155;-18
2021/10/10 03:15:48;;;;;;;;;;;;;;;;;;1018711;29;1056;-18
2021/10/10 03:16:18;;;;;;;;;;;;;;;;;;1018417;29;957;-18
2021/10/10 03:16:49;;;;;;;;;;;;;;;;;;1010362;29;1362;-18
2021/10/10 03:17:20;;;;;;;;;;;;;;;;;;1010726;29;1169;-18
2021/10/10 03:17:50;;;;;;;;;;;;;;;;;;1006544;29;1064;-18
2021/10/10 03:18:20;;;;;;;;;;;;;;;;;;1007179;29;1010;-18
2021/10/10 03:18:50;;;;;;;;;;;;;;;;;;1014445;29;956;-18
2021/10/10 03:19:21;;;;;;;;;;;;;;;;;;1014790;29;942;-18
2021/10/10 03:19:51;;;;;;;;;;;;;;;;;;1014497;29;1140;-18
2021/10/10 03:20:22;;;;;;;;;;;;;;;;;;1010799;29;1212;-18
2021/10/10 03:20:53;;;;;;;;;;;;;;;;;;1010441;29;1020;-18
2021/10/10 03:21:23;;;;;;;;;;;;;;;;;;1011168;29;1193;-18
2021/10/10 03:21:53;;;;;;;;;;;;;;;;;;1014382;29;880;-18
2021/10/10 03:22:24;;;;;;;;;;;;;;;;;;1011597;29;1063;-18
2021/10/10 03:22:55;;;;;;;;;;;;;;;;;;1014455;29;1038;-18
2021/10/10 03:23:26;;;;;;;;;;;;;;;;;;1018573;29;877;-18
2021/10/10 03:23:56;;;;;;;;;;;;;;;;;;1009958;29;2018;-18
2021/10/10 03:24:27;;;;;;;;;;;;;;;;;;1010636;29;1022;-18
2021/10/10 03:24:57;;;;;;;;;;;;;;;;;;1003059;29;1008;-18
2021/10/10 03:25:27;;;;;;;;;;;;;;;;;;1007076;29;1037;-18
2021/10/10 03:25:58;;;;;;;;;;;;;;;;;;1011078;29;986;-18
2021/10/10 03:26:28;;;;;;;;;;;;;;;;;;1015042;29;1612;-18
2021/10/10 03:26:59;;;;;;;;;;;;;;;;;;1018498;29;938;-18
2021/10/10 03:27:29;;;;;;;;;;;;;;;;;;1018691;29;1336;-18
2021/10/10 03:27:59;;;;;;;;;;;;;;;;;;1018409;29;883;-18
2021/10/10 03:28:30;;;;;;;;;;;;;;;;;;1013956;29;1507;-18
2021/10/10 03:29:00;;;;;;;;;;;;;;;;;;1011171;29;1109;-18
2021/10/10 03:29:30;;;;;;;;;;;;;;;;;;1011405;29;1067;-18
2021/10/10 03:30:00;;;;;;;;;;;;;;;;;;1011148;29;987;-18
2021/10/10 03:30:31;;;;;;;;;;;;;;;;;;1006589;29;954;-18
2021/10/10 03:31:03;;;;;;;;;;;;;;;;;;1006741;29;1112;-18
2021/10/10 03:31:33;;;;;;;;;;;;;;;;;;1006741;29;899;-18
2021/10/10 03:32:04;;;;;;;;;;;;;;;;;;1002786;29;1008;-18
2021/10/10 03:32:34;;;;;;;;;;;;;;;;;;1002755;29;1184;-18
2021/10/10 03:33:05;;;;;;;;;;;;;;;;;;1006867;29;958;-18
2021/10/10 03:33:35;;;;;;;;;;;;;;;;;;1006734;29;1077;-18
2021/10/10 03:34:05;;;;;;;;;;;;;;;;;;1010820;29;848;-18
2021/10/10 03:34:36;;;;;;;;;;;;;;;;;;1011162;29;1009;-18